KPVG

Hampton Roads Executive Airport

Norfolk, Virginia, USA
METAR KPVG 171756Z AUTO VRB05KT 10SM CLR 21/11 A3007 RMK AO2 SLP184 T02060106 10206 20167 58013
Observed Flight Rules
Oct-17 @ 17:56 UTC (23 minutes ago) Visual Flight Rules
Wind Visibility Clouds
Variable at 5 knots 10 miles
  • Clear skies
Temperatures Readings
Current 21°C / 70°F
Dewpoint 11°C / 52°F
Humidity 53%
Altimeter 30.07" Hg
Pressure 1018.4 hPa
Elevation 7
METAR KPVG 171756Z AUTO VRB05KT 10SM CLR 21/11 A3007 RMK AO2 SLP184 T02060106 10206 20167 58013
Observed Flight Rules
Oct-17 @ 17:56 UTC
(23 minutes ago)
VFR
Wind Visibility
Variable at 5 knots 10 miles
Clouds
  • Clear skies
Temperature Dewpoint
21°C / 70°F 11°C / 52°F
Humidity Altimeter Pressure
53% 30.07" Hg 1018.4 hPa